sensor_id;sensor_type;location;lat;lon;timestamp;temperature;humidity
4985;DHT22;2509;49.902;8.600;2022-09-25T00:01:46;13.20;99.90
4985;DHT22;2509;49.902;8.600;2022-09-25T00:04:48;13.30;99.90
4985;DHT22;2509;49.902;8.600;2022-09-25T00:07:50;13.30;99.90
4985;DHT22;2509;49.902;8.600;2022-09-25T00:10:52;13.40;99.90
4985;DHT22;2509;49.902;8.600;2022-09-25T00:13:54;13.40;99.90
4985;DHT22;2509;49.902;8.600;2022-09-25T00:16:57;13.40;99.90
4985;DHT22;2509;49.902;8.600;2022-09-25T00:19:59;13.40;99.90
4985;DHT22;2509;49.902;8.600;2022-09-25T00:23:00;13.40;99.90
4985;DHT22;2509;49.902;8.600;2022-09-25T00:26:03;13.40;99.90
4985;DHT22;2509;49.902;8.600;2022-09-25T00:29:09;13.40;99.90
4985;DHT22;2509;49.902;8.600;2022-09-25T00:32:15;13.40;99.90
4985;DHT22;2509;49.902;8.600;2022-09-25T00:35:17;13.40;99.90
4985;DHT22;2509;49.902;8.600;2022-09-25T00:38:19;13.40;99.90
4985;DHT22;2509;49.902;8.600;2022-09-25T00:41:23;13.40;99.90
4985;DHT22;2509;49.902;8.600;2022-09-25T00:44:53;13.40;99.90
4985;DHT22;2509;49.902;8.600;2022-09-25T00:47:59;13.40;99.90
4985;DHT22;2509;49.902;8.600;2022-09-25T00:51:02;13.40;99.90
4985;DHT22;2509;49.902;8.600;2022-09-25T00:54:05;13.40;99.90
4985;DHT22;2509;49.902;8.600;2022-09-25T00:57:11;13.40;99.90
4985;DHT22;2509;49.902;8.600;2022-09-25T01:00:14;13.40;99.90
4985;DHT22;2509;49.902;8.600;2022-09-25T01:03:19;13.40;99.90
4985;DHT22;2509;49.902;8.600;2022-09-25T01:06:21;13.30;99.90
4985;DHT22;2509;49.902;8.600;2022-09-25T01:09:26;13.40;99.90
4985;DHT22;2509;49.902;8.600;2022-09-25T01:12:27;13.40;99.90
4985;DHT22;2509;49.902;8.600;2022-09-25T01:15:35;13.30;99.90
4985;DHT22;2509;49.902;8.600;2022-09-25T01:18:52;13.30;99.90
4985;DHT22;2509;49.902;8.600;2022-09-25T01:22:02;13.40;99.90
4985;DHT22;2509;49.902;8.600;2022-09-25T01:25:10;13.40;99.90
4985;DHT22;2509;49.902;8.600;2022-09-25T01:28:36;13.40;99.90
4985;DHT22;2509;49.902;8.600;2022-09-25T01:31:44;13.40;99.90
4985;DHT22;2509;49.902;8.600;2022-09-25T01:34:53;13.40;99.90
4985;DHT22;2509;49.902;8.600;2022-09-25T01:38:01;13.40;99.90
4985;DHT22;2509;49.902;8.600;2022-09-25T01:41:10;13.40;99.90
4985;DHT22;2509;49.902;8.600;2022-09-25T01:44:20;13.40;99.90
4985;DHT22;2509;49.902;8.600;2022-09-25T01:47:29;13.40;99.90
4985;DHT22;2509;49.902;8.600;2022-09-25T01:50:34;13.40;99.90
4985;DHT22;2509;49.902;8.600;2022-09-25T01:53:41;13.40;99.90
4985;DHT22;2509;49.902;8.600;2022-09-25T01:56:49;13.30;99.90
4985;DHT22;2509;49.902;8.600;2022-09-25T01:59:56;13.30;99.90
4985;DHT22;2509;49.902;8.600;2022-09-25T02:03:08;13.20;99.90
4985;DHT22;2509;49.902;8.600;2022-09-25T02:06:14;13.30;99.90
4985;DHT22;2509;49.902;8.600;2022-09-25T02:09:24;13.30;99.90
4985;DHT22;2509;49.902;8.600;2022-09-25T02:12:31;13.30;99.90
4985;DHT22;2509;49.902;8.600;2022-09-25T02:15:37;13.10;99.90
4985;DHT22;2509;49.902;8.600;2022-09-25T02:18:40;13.10;99.90
4985;DHT22;2509;49.902;8.600;2022-09-25T02:22:04;13.10;99.90
4985;DHT22;2509;49.902;8.600;2022-09-25T02:25:14;13.10;99.90
4985;DHT22;2509;49.902;8.600;2022-09-25T02:28:17;13.10;99.90
4985;DHT22;2509;49.902;8.600;2022-09-25T02:31:21;13.10;99.90
4985;DHT22;2509;49.902;8.600;2022-09-25T02:34:24;13.20;99.90
4985;DHT22;2509;49.902;8.600;2022-09-25T02:37:26;13.20;99.90
4985;DHT22;2509;49.902;8.600;2022-09-25T02:40:35;13.20;99.90
4985;DHT22;2509;49.902;8.600;2022-09-25T02:43:45;13.20;99.90
4985;DHT22;2509;49.902;8.600;2022-09-25T02:46:58;13.20;99.90
4985;DHT22;2509;49.902;8.600;2022-09-25T02:50:12;13.20;99.90
4985;DHT22;2509;49.902;8.600;2022-09-25T02:53:18;13.20;99.90
4985;DHT22;2509;49.902;8.600;2022-09-25T02:56:27;13.20;99.90
4985;DHT22;2509;49.902;8.600;2022-09-25T02:59:32;13.20;99.90
4985;DHT22;2509;49.902;8.600;2022-09-25T03:02:38;13.20;99.90
4985;DHT22;2509;49.902;8.600;2022-09-25T03:05:40;13.20;99.90
4985;DHT22;2509;49.902;8.600;2022-09-25T03:08:44;13.30;99.90
4985;DHT22;2509;49.902;8.600;2022-09-25T03:11:48;13.20;99.90
4985;DHT22;2509;49.902;8.600;2022-09-25T03:14:52;13.20;99.90
4985;DHT22;2509;49.902;8.600;2022-09-25T03:17:55;13.30;99.90
4985;DHT22;2509;49.902;8.600;2022-09-25T03:20:57;13.30;99.90
4985;DHT22;2509;49.902;8.600;2022-09-25T03:23:59;13.30;99.90
4985;DHT22;2509;49.902;8.600;2022-09-25T03:27:01;13.30;99.90
4985;DHT22;2509;49.902;8.600;2022-09-25T03:30:03;13.20;99.90
4985;DHT22;2509;49.902;8.600;2022-09-25T03:33:07;13.20;99.90
4985;DHT22;2509;49.902;8.600;2022-09-25T03:36:11;13.30;99.90
4985;DHT22;2509;49.902;8.600;2022-09-25T03:39:14;13.30;99.90
4985;DHT22;2509;49.902;8.600;2022-09-25T03:42:17;13.30;99.90
4985;DHT22;2509;49.902;8.600;2022-09-25T03:45:19;13.30;99.90
4985;DHT22;2509;49.902;8.600;2022-09-25T03:48:22;13.30;99.90
4985;DHT22;2509;49.902;8.600;2022-09-25T03:51:26;13.30;99.90
4985;DHT22;2509;49.902;8.600;2022-09-25T03:54:28;13.30;99.90
4985;DHT22;2509;49.902;8.600;2022-09-25T03:57:29;13.30;99.90
4985;DHT22;2509;49.902;8.600;2022-09-25T04:00:31;13.30;99.90
4985;DHT22;2509;49.902;8.600;2022-09-25T04:03:34;13.30;99.90
4985;DHT22;2509;49.902;8.600;2022-09-25T04:06:36;13.30;99.90
4985;DHT22;2509;49.902;8.600;2022-09-25T04:09:37;13.30;99.90
4985;DHT22;2509;49.902;8.600;2022-09-25T04:12:39;13.30;99.90
4985;DHT22;2509;49.902;8.600;2022-09-25T04:15:43;13.30;99.90
4985;DHT22;2509;49.902;8.600;2022-09-25T04:18:46;13.30;99.90
4985;DHT22;2509;49.902;8.600;2022-09-25T04:21:48;13.30;99.90
4985;DHT22;2509;49.902;8.600;2022-09-25T04:24:49;13.30;99.90
4985;DHT22;2509;49.902;8.600;2022-09-25T04:27:52;13.30;99.90
4985;DHT22;2509;49.902;8.600;2022-09-25T04:30:54;13.30;99.90
4985;DHT22;2509;49.902;8.600;2022-09-25T04:33:57;13.30;99.90
4985;DHT22;2509;49.902;8.600;2022-09-25T04:36:58;13.30;99.90
4985;DHT22;2509;49.902;8.600;2022-09-25T04:40:00;13.30;99.90
4985;DHT22;2509;49.902;8.600;2022-09-25T04:43:04;13.30;99.90
4985;DHT22;2509;49.902;8.600;2022-09-25T04:46:07;13.30;99.90
4985;DHT22;2509;49.902;8.600;2022-09-25T04:49:11;13.30;99.90
4985;DHT22;2509;49.902;8.600;2022-09-25T04:52:13;13.20;99.90
4985;DHT22;2509;49.902;8.600;2022-09-25T04:55:15;13.20;99.90
4985;DHT22;2509;49.902;8.600;2022-09-25T04:58:17;13.20;99.90
4985;DHT22;2509;49.902;8.600;2022-09-25T05:01:19;13.20;99.90
4985;DHT22;2509;49.902;8.600;2022-09-25T05:04:22;13.20;99.90
4985;DHT22;2509;49.902;8.600;2022-09-25T05:07:24;13.20;99.90
4985;DHT22;2509;49.902;8.600;2022-09-25T05:10:27;13.20;99.90
4985;DHT22;2509;49.902;8.600;2022-09-25T05:13:29;13.20;99.90
4985;DHT22;2509;49.902;8.600;2022-09-25T05:16:31;13.20;99.90
4985;DHT22;2509;49.902;8.600;2022-09-25T05:19:34;13.20;99.90
4985;DHT22;2509;49.902;8.600;2022-09-25T05:22:36;13.20;99.90
4985;DHT22;2509;49.902;8.600;2022-09-25T05:25:38;13.20;99.90
4985;DHT22;2509;49.902;8.600;2022-09-25T05:28:40;13.20;99.90
4985;DHT22;2509;49.902;8.600;2022-09-25T05:31:41;13.20;99.90
4985;DHT22;2509;49.902;8.600;2022-09-25T05:34:47;13.20;99.90
4985;DHT22;2509;49.902;8.600;2022-09-25T05:37:49;13.20;99.90
4985;DHT22;2509;49.902;8.600;2022-09-25T05:40:51;13.20;99.90
4985;DHT22;2509;49.902;8.600;2022-09-25T05:43:53;13.20;99.90
4985;DHT22;2509;49.902;8.600;2022-09-25T05:46:55;13.20;99.90
4985;DHT22;2509;49.902;8.600;2022-09-25T05:49:58;13.20;99.90
4985;DHT22;2509;49.902;8.600;2022-09-25T05:53:03;13.20;99.90
4985;DHT22;2509;49.902;8.600;2022-09-25T05:56:05;13.20;99.90
4985;DHT22;2509;49.902;8.600;2022-09-25T05:59:07;13.20;99.90
4985;DHT22;2509;49.902;8.600;2022-09-25T06:02:10;13.20;99.90
4985;DHT22;2509;49.902;8.600;2022-09-25T06:05:13;13.20;99.90
4985;DHT22;2509;49.902;8.600;2022-09-25T06:08:15;13.30;99.90
4985;DHT22;2509;49.902;8.600;2022-09-25T06:11:17;13.30;99.90
4985;DHT22;2509;49.902;8.600;2022-09-25T06:14:18;13.30;99.90
4985;DHT22;2509;49.902;8.600;2022-09-25T06:17:20;13.30;99.90
4985;DHT22;2509;49.902;8.600;2022-09-25T06:20:24;13.30;99.90
4985;DHT22;2509;49.902;8.600;2022-09-25T06:23:25;13.30;99.90
4985;DHT22;2509;49.902;8.600;2022-09-25T06:26:27;13.30;99.90
4985;DHT22;2509;49.902;8.600;2022-09-25T06:29:29;13.30;99.90
4985;DHT22;2509;49.902;8.600;2022-09-25T06:32:31;13.30;99.90
4985;DHT22;2509;49.902;8.600;2022-09-25T06:35:34;13.30;99.90
4985;DHT22;2509;49.902;8.600;2022-09-25T06:38:36;13.30;99.90
4985;DHT22;2509;49.902;8.600;2022-09-25T06:41:39;13.40;99.90
4985;DHT22;2509;49.902;8.600;2022-09-25T06:44:41;13.30;99.90
4985;DHT22;2509;49.902;8.600;2022-09-25T06:47:43;13.30;99.90
4985;DHT22;2509;49.902;8.600;2022-09-25T06:50:47;13.30;99.90
4985;DHT22;2509;49.902;8.600;2022-09-25T06:53:51;13.30;99.90
4985;DHT22;2509;49.902;8.600;2022-09-25T06:56:53;13.30;99.90
4985;DHT22;2509;49.902;8.600;2022-09-25T06:59:55;13.30;99.90
4985;DHT22;2509;49.902;8.600;2022-09-25T07:02:57;13.30;99.90
4985;DHT22;2509;49.902;8.600;2022-09-25T07:06:19;13.40;99.90
4985;DHT22;2509;49.902;8.600;2022-09-25T07:09:21;13.40;99.90
4985;DHT22;2509;49.902;8.600;2022-09-25T07:12:23;13.40;99.90
4985;DHT22;2509;49.902;8.600;2022-09-25T07:15:25;13.40;99.90
4985;DHT22;2509;49.902;8.600;2022-09-25T07:18:28;13.40;99.90
4985;DHT22;2509;49.902;8.600;2022-09-25T07:21:31;13.40;99.90
4985;DHT22;2509;49.902;8.600;2022-09-25T07:24:33;13.40;99.90
4985;DHT22;2509;49.902;8.600;2022-09-25T07:27:35;13.50;99.90
4985;DHT22;2509;49.902;8.600;2022-09-25T07:30:36;13.50;99.90
4985;DHT22;2509;49.902;8.600;2022-09-25T07:33:38;13.50;99.90
4985;DHT22;2509;49.902;8.600;2022-09-25T07:36:41;13.50;99.90
4985;DHT22;2509;49.902;8.600;2022-09-25T07:39:43;13.50;99.90
4985;DHT22;2509;49.902;8.600;2022-09-25T07:42:45;13.50;99.90
4985;DHT22;2509;49.902;8.600;2022-09-25T07:45:49;13.60;99.90
4985;DHT22;2509;49.902;8.600;2022-09-25T07:48:53;13.60;99.90
4985;DHT22;2509;49.902;8.600;2022-09-25T07:51:56;13.60;99.90
4985;DHT22;2509;49.902;8.600;2022-09-25T07:54:58;13.70;99.90
4985;DHT22;2509;49.902;8.600;2022-09-25T07:58:00;13.70;99.90
4985;DHT22;2509;49.902;8.600;2022-09-25T08:01:04;13.80;99.90
4985;DHT22;2509;49.902;8.600;2022-09-25T08:04:06;13.80;99.90
4985;DHT22;2509;49.902;8.600;2022-09-25T08:07:09;13.80;99.90
4985;DHT22;2509;49.902;8.600;2022-09-25T08:10:11;13.80;99.90
4985;DHT22;2509;49.902;8.600;2022-09-25T08:13:12;13.80;99.90
4985;DHT22;2509;49.902;8.600;2022-09-25T08:16:17;13.80;99.90
4985;DHT22;2509;49.902;8.600;2022-09-25T08:19:22;13.80;99.90
4985;DHT22;2509;49.902;8.600;2022-09-25T08:22:25;13.90;99.90
4985;DHT22;2509;49.902;8.600;2022-09-25T08:25:26;13.90;99.90
4985;DHT22;2509;49.902;8.600;2022-09-25T08:28:28;14.00;99.90
4985;DHT22;2509;49.902;8.600;2022-09-25T08:31:30;14.00;99.90
4985;DHT22;2509;49.902;8.600;2022-09-25T08:34:32;14.00;99.90
4985;DHT22;2509;49.902;8.600;2022-09-25T08:37:39;14.00;99.90
4985;DHT22;2509;49.902;8.600;2022-09-25T08:40:48;13.90;99.90
4985;DHT22;2509;49.902;8.600;2022-09-25T08:43:56;13.90;99.90
4985;DHT22;2509;49.902;8.600;2022-09-25T08:47:01;13.90;99.90
4985;DHT22;2509;49.902;8.600;2022-09-25T08:50:23;14.00;99.90
4985;DHT22;2509;49.902;8.600;2022-09-25T08:53:26;14.00;99.90
4985;DHT22;2509;49.902;8.600;2022-09-25T08:56:28;14.00;99.90
4985;DHT22;2509;49.902;8.600;2022-09-25T08:59:34;14.00;99.90
4985;DHT22;2509;49.902;8.600;2022-09-25T09:02:40;14.00;99.90
4985;DHT22;2509;49.902;8.600;2022-09-25T09:05:45;14.10;99.90
4985;DHT22;2509;49.902;8.600;2022-09-25T09:08:53;14.10;99.90
4985;DHT22;2509;49.902;8.600;2022-09-25T09:11:59;14.10;99.90
4985;DHT22;2509;49.902;8.600;2022-09-25T09:15:15;14.10;99.90
4985;DHT22;2509;49.902;8.600;2022-09-25T09:18:21;14.20;99.90
4985;DHT22;2509;49.902;8.600;2022-09-25T09:21:30;14.20;99.90
4985;DHT22;2509;49.902;8.600;2022-09-25T09:24:47;14.20;99.90
4985;DHT22;2509;49.902;8.600;2022-09-25T09:28:25;14.30;99.90
4985;DHT22;2509;49.902;8.600;2022-09-25T09:31:36;14.30;99.90
4985;DHT22;2509;49.902;8.600;2022-09-25T09:34:55;14.40;99.90
4985;DHT22;2509;49.902;8.600;2022-09-25T09:38:09;14.40;99.90
4985;DHT22;2509;49.902;8.600;2022-09-25T09:41:24;14.60;99.90
4985;DHT22;2509;49.902;8.600;2022-09-25T09:44:40;14.80;99.90
4985;DHT22;2509;49.902;8.600;2022-09-25T09:47:54;14.80;99.90
4985;DHT22;2509;49.902;8.600;2022-09-25T09:51:02;14.80;99.90
4985;DHT22;2509;49.902;8.600;2022-09-25T09:54:10;14.70;99.90
4985;DHT22;2509;49.902;8.600;2022-09-25T09:57:20;14.80;99.90
4985;DHT22;2509;49.902;8.600;2022-09-25T10:00:22;14.80;99.90
4985;DHT22;2509;49.902;8.600;2022-09-25T10:03:27;14.80;99.90
4985;DHT22;2509;49.902;8.600;2022-09-25T10:06:32;14.70;99.90
4985;DHT22;2509;49.902;8.600;2022-09-25T10:09:35;14.80;99.90
4985;DHT22;2509;49.902;8.600;2022-09-25T10:12:38;14.90;99.90
4985;DHT22;2509;49.902;8.600;2022-09-25T10:15:46;15.00;99.90
4985;DHT22;2509;49.902;8.600;2022-09-25T10:18:54;15.10;99.90
4985;DHT22;2509;49.902;8.600;2022-09-25T10:22:03;15.10;99.90
4985;DHT22;2509;49.902;8.600;2022-09-25T10:25:06;15.10;99.90
4985;DHT22;2509;49.902;8.600;2022-09-25T10:28:25;15.10;99.90
4985;DHT22;2509;49.902;8.600;2022-09-25T10:31:29;15.20;99.90
4985;DHT22;2509;49.902;8.600;2022-09-25T10:34:32;15.20;99.90
4985;DHT22;2509;49.902;8.600;2022-09-25T10:37:35;15.10;99.90
4985;DHT22;2509;49.902;8.600;2022-09-25T10:40:38;15.20;99.90
4985;DHT22;2509;49.902;8.600;2022-09-25T10:43:52;15.30;99.90
4985;DHT22;2509;49.902;8.600;2022-09-25T10:46:55;15.40;99.90
4985;DHT22;2509;49.902;8.600;2022-09-25T10:50:18;15.50;99.90
4985;DHT22;2509;49.902;8.600;2022-09-25T10:53:25;15.40;99.90
4985;DHT22;2509;49.902;8.600;2022-09-25T10:56:30;15.20;99.90
4985;DHT22;2509;49.902;8.600;2022-09-25T10:59:39;15.00;99.90
4985;DHT22;2509;49.902;8.600;2022-09-25T11:02:49;14.80;99.90
4985;DHT22;2509;49.902;8.600;2022-09-25T11:05:58;14.70;99.90
4985;DHT22;2509;49.902;8.600;2022-09-25T11:09:07;14.60;99.90
4985;DHT22;2509;49.902;8.600;2022-09-25T11:12:14;14.60;99.90
4985;DHT22;2509;49.902;8.600;2022-09-25T11:15:21;14.60;99.90
4985;DHT22;2509;49.902;8.600;2022-09-25T11:18:39;14.60;99.90
4985;DHT22;2509;49.902;8.600;2022-09-25T11:21:48;14.60;99.90
4985;DHT22;2509;49.902;8.600;2022-09-25T11:24:57;14.50;99.90
4985;DHT22;2509;49.902;8.600;2022-09-25T11:28:07;14.50;99.90
4985;DHT22;2509;49.902;8.600;2022-09-25T11:31:18;14.50;99.90
4985;DHT22;2509;49.902;8.600;2022-09-25T11:34:37;14.40;99.90
4985;DHT22;2509;49.902;8.600;2022-09-25T11:37:45;14.50;99.90
4985;DHT22;2509;49.902;8.600;2022-09-25T11:40:55;14.50;99.90
4985;DHT22;2509;49.902;8.600;2022-09-25T11:44:21;14.40;99.90
4985;DHT22;2509;49.902;8.600;2022-09-25T11:47:31;14.50;99.90
4985;DHT22;2509;49.902;8.600;2022-09-25T11:50:39;14.40;99.90
4985;DHT22;2509;49.902;8.600;2022-09-25T11:53:52;14.50;99.90
4985;DHT22;2509;49.902;8.600;2022-09-25T11:57:02;14.50;99.90
4985;DHT22;2509;49.902;8.600;2022-09-25T12:00:08;14.50;99.90
4985;DHT22;2509;49.902;8.600;2022-09-25T12:03:26;14.50;99.90
4985;DHT22;2509;49.902;8.600;2022-09-25T12:06:42;14.50;99.90
4985;DHT22;2509;49.902;8.600;2022-09-25T12:10:13;14.50;99.90
4985;DHT22;2509;49.902;8.600;2022-09-25T12:13:23;14.40;99.90
4985;DHT22;2509;49.902;8.600;2022-09-25T12:16:36;14.50;99.90
4985;DHT22;2509;49.902;8.600;2022-09-25T12:19:46;14.50;99.90
4985;DHT22;2509;49.902;8.600;2022-09-25T12:22:59;14.40;99.90
4985;DHT22;2509;49.902;8.600;2022-09-25T12:26:18;14.40;99.90
4985;DHT22;2509;49.902;8.600;2022-09-25T12:29:50;14.40;99.90
4985;DHT22;2509;49.902;8.600;2022-09-25T12:33:08;14.30;99.90
4985;DHT22;2509;49.902;8.600;2022-09-25T12:36:18;14.30;99.90
4985;DHT22;2509;49.902;8.600;2022-09-25T12:39:28;14.20;99.90
4985;DHT22;2509;49.902;8.600;2022-09-25T12:42:37;14.10;99.90
4985;DHT22;2509;49.902;8.600;2022-09-25T12:45:45;14.10;99.90
4985;DHT22;2509;49.902;8.600;2022-09-25T12:48:50;14.20;99.90
4985;DHT22;2509;49.902;8.600;2022-09-25T12:52:00;14.20;99.90
4985;DHT22;2509;49.902;8.600;2022-09-25T12:55:08;14.20;99.90
4985;DHT22;2509;49.902;8.600;2022-09-25T12:58:17;14.10;99.90
4985;DHT22;2509;49.902;8.600;2022-09-25T13:01:26;14.20;99.90
4985;DHT22;2509;49.902;8.600;2022-09-25T13:04:42;14.20;99.90
4985;DHT22;2509;49.902;8.600;2022-09-25T13:07:53;14.30;99.90
4985;DHT22;2509;49.902;8.600;2022-09-25T13:10:58;14.30;99.90
4985;DHT22;2509;49.902;8.600;2022-09-25T13:14:02;14.40;99.90
4985;DHT22;2509;49.902;8.600;2022-09-25T13:17:08;14.40;99.90
4985;DHT22;2509;49.902;8.600;2022-09-25T13:20:39;14.40;99.90
4985;DHT22;2509;49.902;8.600;2022-09-25T13:23:47;14.50;99.90
4985;DHT22;2509;49.902;8.600;2022-09-25T13:26:51;14.40;99.90
4985;DHT22;2509;49.902;8.600;2022-09-25T13:29:56;14.30;99.90
4985;DHT22;2509;49.902;8.600;2022-09-25T13:33:00;14.30;99.90
4985;DHT22;2509;49.902;8.600;2022-09-25T13:36:08;14.30;99.90
4985;DHT22;2509;49.902;8.600;2022-09-25T13:39:20;14.30;99.90
4985;DHT22;2509;49.902;8.600;2022-09-25T13:42:41;14.20;99.90
4985;DHT22;2509;49.902;8.600;2022-09-25T13:45:45;14.20;99.90
4985;DHT22;2509;49.902;8.600;2022-09-25T13:48:48;14.10;99.90
4985;DHT22;2509;49.902;8.600;2022-09-25T13:51:51;14.10;99.90
4985;DHT22;2509;49.902;8.600;2022-09-25T13:55:15;14.10;99.90
4985;DHT22;2509;49.902;8.600;2022-09-25T13:58:20;14.10;99.90
4985;DHT22;2509;49.902;8.600;2022-09-25T14:01:33;14.10;99.90
4985;DHT22;2509;49.902;8.600;2022-09-25T14:04:36;14.00;99.90
4985;DHT22;2509;49.902;8.600;2022-09-25T14:07:39;14.10;99.90
4985;DHT22;2509;49.902;8.600;2022-09-25T14:10:44;14.10;99.90
4985;DHT22;2509;49.902;8.600;2022-09-25T14:13:50;14.10;99.90
4985;DHT22;2509;49.902;8.600;2022-09-25T14:16:57;14.20;99.90
4985;DHT22;2509;49.902;8.600;2022-09-25T14:20:02;14.20;99.90
4985;DHT22;2509;49.902;8.600;2022-09-25T14:23:11;14.20;99.90
4985;DHT22;2509;49.902;8.600;2022-09-25T14:26:18;14.20;99.90
4985;DHT22;2509;49.902;8.600;2022-09-25T14:29:23;14.30;99.90
4985;DHT22;2509;49.902;8.600;2022-09-25T14:32:37;14.30;99.90
4985;DHT22;2509;49.902;8.600;2022-09-25T14:35:45;14.30;99.90
4985;DHT22;2509;49.902;8.600;2022-09-25T14:39:02;14.30;99.90
4985;DHT22;2509;49.902;8.600;2022-09-25T14:42:28;14.30;99.90
4985;DHT22;2509;49.902;8.600;2022-09-25T14:46:02;14.20;99.90
4985;DHT22;2509;49.902;8.600;2022-09-25T14:49:11;14.20;99.90
4985;DHT22;2509;49.902;8.600;2022-09-25T14:52:22;14.20;99.90
4985;DHT22;2509;49.902;8.600;2022-09-25T14:55:24;14.20;99.90
4985;DHT22;2509;49.902;8.600;2022-09-25T14:58:31;14.00;99.90
4985;DHT22;2509;49.902;8.600;2022-09-25T15:01:34;14.00;99.90
4985;DHT22;2509;49.902;8.600;2022-09-25T15:04:36;14.00;99.90
4985;DHT22;2509;49.902;8.600;2022-09-25T15:07:41;14.10;99.90
4985;DHT22;2509;49.902;8.600;2022-09-25T15:10:43;14.20;99.90
4985;DHT22;2509;49.902;8.600;2022-09-25T15:13:46;14.20;99.90
4985;DHT22;2509;49.902;8.600;2022-09-25T15:16:48;14.20;99.90
4985;DHT22;2509;49.902;8.600;2022-09-25T15:20:12;14.20;99.90
4985;DHT22;2509;49.902;8.600;2022-09-25T15:23:17;14.20;99.90
4985;DHT22;2509;49.902;8.600;2022-09-25T15:26:19;14.30;99.90
4985;DHT22;2509;49.902;8.600;2022-09-25T15:29:23;14.30;99.90
4985;DHT22;2509;49.902;8.600;2022-09-25T15:32:26;14.30;99.90
4985;DHT22;2509;49.902;8.600;2022-09-25T15:35:29;14.40;99.90
4985;DHT22;2509;49.902;8.600;2022-09-25T15:38:33;14.40;99.90
4985;DHT22;2509;49.902;8.600;2022-09-25T15:41:35;14.40;99.90
4985;DHT22;2509;49.902;8.600;2022-09-25T15:44:38;14.40;99.90
4985;DHT22;2509;49.902;8.600;2022-09-25T15:47:49;14.40;99.90
4985;DHT22;2509;49.902;8.600;2022-09-25T15:50:52;14.40;99.90
4985;DHT22;2509;49.902;8.600;2022-09-25T15:53:56;14.30;99.90
4985;DHT22;2509;49.902;8.600;2022-09-25T15:57:00;14.30;99.90
4985;DHT22;2509;49.902;8.600;2022-09-25T16:00:07;14.20;99.90
4985;DHT22;2509;49.902;8.600;2022-09-25T16:03:29;14.20;99.90
4985;DHT22;2509;49.902;8.600;2022-09-25T16:06:48;14.20;99.90
4985;DHT22;2509;49.902;8.600;2022-09-25T16:09:51;14.20;99.90
4985;DHT22;2509;49.902;8.600;2022-09-25T16:12:53;14.20;99.90
4985;DHT22;2509;49.902;8.600;2022-09-25T16:15:56;14.10;99.90
4985;DHT22;2509;49.902;8.600;2022-09-25T16:18:59;14.10;99.90
4985;DHT22;2509;49.902;8.600;2022-09-25T16:22:22;14.10;99.90
4985;DHT22;2509;49.902;8.600;2022-09-25T16:25:26;14.10;99.90
4985;DHT22;2509;49.902;8.600;2022-09-25T16:28:33;14.10;99.90
4985;DHT22;2509;49.902;8.600;2022-09-25T16:31:37;14.00;99.90
4985;DHT22;2509;49.902;8.600;2022-09-25T16:34:40;14.00;99.90
4985;DHT22;2509;49.902;8.600;2022-09-25T16:37:50;13.90;99.90
4985;DHT22;2509;49.902;8.600;2022-09-25T16:41:01;13.90;99.90
4985;DHT22;2509;49.902;8.600;2022-09-25T16:44:18;13.80;99.90
4985;DHT22;2509;49.902;8.600;2022-09-25T16:47:27;13.80;99.90
4985;DHT22;2509;49.902;8.600;2022-09-25T16:50:31;13.80;99.90
4985;DHT22;2509;49.902;8.600;2022-09-25T16:53:37;13.70;99.90
4985;DHT22;2509;49.902;8.600;2022-09-25T16:56:40;13.70;
4985;DHT22;2509;49.902;8.600;2022-09-25T16:59:42;13.70;99.90
4985;DHT22;2509;49.902;8.600;2022-09-25T17:02:46;13.70;99.90
4985;DHT22;2509;49.902;8.600;2022-09-25T17:05:48;13.70;99.90
4985;DHT22;2509;49.902;8.600;2022-09-25T17:08:50;13.70;99.90
4985;DHT22;2509;49.902;8.600;2022-09-25T17:11:54;13.70;99.90
4985;DHT22;2509;49.902;8.600;2022-09-25T17:14:59;13.70;99.90
4985;DHT22;2509;49.902;8.600;2022-09-25T17:18:06;13.70;99.90
4985;DHT22;2509;49.902;8.600;2022-09-25T17:21:13;13.60;99.90
4985;DHT22;2509;49.902;8.600;2022-09-25T17:24:15;13.60;99.90
4985;DHT22;2509;49.902;8.600;2022-09-25T17:27:17;13.60;99.90
4985;DHT22;2509;49.902;8.600;2022-09-25T17:30:19;13.60;99.90
4985;DHT22;2509;49.902;8.600;2022-09-25T17:33:22;13.50;99.90
4985;DHT22;2509;49.902;8.600;2022-09-25T17:36:24;13.50;99.90
4985;DHT22;2509;49.902;8.600;2022-09-25T17:39:26;13.50;99.90
4985;DHT22;2509;49.902;8.600;2022-09-25T17:42:27;13.50;99.90
4985;DHT22;2509;49.902;8.600;2022-09-25T17:45:34;13.50;99.90
4985;DHT22;2509;49.902;8.600;2022-09-25T17:48:38;13.50;99.90
4985;DHT22;2509;49.902;8.600;2022-09-25T17:51:40;13.50;99.90
4985;DHT22;2509;49.902;8.600;2022-09-25T17:54:41;13.50;99.90
4985;DHT22;2509;49.902;8.600;2022-09-25T17:57:43;13.50;99.90
4985;DHT22;2509;49.902;8.600;2022-09-25T18:00:45;13.40;99.90
4985;DHT22;2509;49.902;8.600;2022-09-25T18:03:48;13.40;99.90
4985;DHT22;2509;49.902;8.600;2022-09-25T18:06:51;13.40;99.90
4985;DHT22;2509;49.902;8.600;2022-09-25T18:09:52;13.40;99.90
4985;DHT22;2509;49.902;8.600;2022-09-25T18:12:54;13.40;99.90
4985;DHT22;2509;49.902;8.600;2022-09-25T18:15:58;13.40;99.90
4985;DHT22;2509;49.902;8.600;2022-09-25T18:19:01;13.40;99.90
4985;DHT22;2509;49.902;8.600;2022-09-25T18:22:21;13.30;99.90
4985;DHT22;2509;49.902;8.600;2022-09-25T18:25:24;13.30;99.90
4985;DHT22;2509;49.902;8.600;2022-09-25T18:28:26;13.30;99.90
4985;DHT22;2509;49.902;8.600;2022-09-25T18:31:29;13.30;99.90
4985;DHT22;2509;49.902;8.600;2022-09-25T18:34:32;13.30;99.90
4985;DHT22;2509;49.902;8.600;2022-09-25T18:37:34;13.30;99.90
4985;DHT22;2509;49.902;8.600;2022-09-25T18:40:36;13.20;99.90
4985;DHT22;2509;49.902;8.600;2022-09-25T18:43:37;13.20;99.90
4985;DHT22;2509;49.902;8.600;2022-09-25T18:46:39;13.20;99.90
4985;DHT22;2509;49.902;8.600;2022-09-25T18:49:42;13.30;99.90
4985;DHT22;2509;49.902;8.600;2022-09-25T18:52:45;13.30;99.90
4985;DHT22;2509;49.902;8.600;2022-09-25T18:55:46;13.20;99.90
4985;DHT22;2509;49.902;8.600;2022-09-25T18:58:53;13.20;99.90
4985;DHT22;2509;49.902;8.600;2022-09-25T19:01:54;13.30;99.90
4985;DHT22;2509;49.902;8.600;2022-09-25T19:04:58;13.30;99.90
4985;DHT22;2509;49.902;8.600;2022-09-25T19:08:00;13.30;99.90
4985;DHT22;2509;49.902;8.600;2022-09-25T19:11:10;13.30;99.90
4985;DHT22;2509;49.902;8.600;2022-09-25T19:14:13;13.30;99.90
4985;DHT22;2509;49.902;8.600;2022-09-25T19:17:17;13.20;99.90
4985;DHT22;2509;49.902;8.600;2022-09-25T19:20:20;13.30;99.90
4985;DHT22;2509;49.902;8.600;2022-09-25T19:23:23;13.20;99.90
4985;DHT22;2509;49.902;8.600;2022-09-25T19:26:26;13.20;99.90
4985;DHT22;2509;49.902;8.600;2022-09-25T19:29:28;13.20;99.90
4985;DHT22;2509;49.902;8.600;2022-09-25T19:32:29;13.20;99.90
4985;DHT22;2509;49.902;8.600;2022-09-25T19:35:32;13.20;99.90
4985;DHT22;2509;49.902;8.600;2022-09-25T19:38:35;13.20;99.90
4985;DHT22;2509;49.902;8.600;2022-09-25T19:41:37;13.20;99.90
4985;DHT22;2509;49.902;8.600;2022-09-25T19:44:40;13.10;99.90
4985;DHT22;2509;49.902;8.600;2022-09-25T19:47:42;13.00;99.90
4985;DHT22;2509;49.902;8.600;2022-09-25T19:50:45;13.00;99.90
4985;DHT22;2509;49.902;8.600;2022-09-25T19:53:47;13.00;99.90
4985;DHT22;2509;49.902;8.600;2022-09-25T19:56:49;13.00;99.90
4985;DHT22;2509;49.902;8.600;2022-09-25T19:59:51;12.90;99.90
4985;DHT22;2509;49.902;8.600;2022-09-25T20:02:53;12.90;99.90
4985;DHT22;2509;49.902;8.600;2022-09-25T20:05:59;12.90;99.90
4985;DHT22;2509;49.902;8.600;2022-09-25T20:09:02;12.80;99.90
4985;DHT22;2509;49.902;8.600;2022-09-25T20:12:04;12.80;99.90
4985;DHT22;2509;49.902;8.600;2022-09-25T20:15:06;12.80;99.90